createdAt,value
2022-08-26T00:04:39.103Z,19.20
2022-08-26T00:09:42.247Z,19.30
2022-08-26T00:14:50.543Z,19.20
2022-08-26T00:19:54.914Z,19.10
2022-08-26T00:24:58.306Z,19.00
2022-08-26T00:30:01.724Z,18.90
2022-08-26T00:35:07.654Z,18.90
2022-08-26T00:40:14.067Z,18.80
2022-08-26T00:45:18.237Z,18.90
2022-08-26T00:50:26.041Z,18.80
2022-08-26T00:55:37.816Z,18.80
2022-08-26T01:00:41.261Z,18.80
2022-08-26T01:05:51.119Z,18.80
2022-08-26T01:10:55.951Z,18.70
2022-08-26T01:16:02.867Z,18.70
2022-08-26T01:21:14.401Z,18.70
2022-08-26T01:26:22.773Z,18.70
2022-08-26T01:31:32.302Z,18.60
2022-08-26T01:36:37.036Z,18.60
2022-08-26T01:41:43.989Z,18.70
2022-08-26T01:46:50.645Z,18.80
2022-08-26T01:51:56.398Z,18.90
2022-08-26T01:57:03.382Z,19.10
2022-08-26T02:02:06.433Z,19.10
2022-08-26T02:07:10.216Z,19.00
2022-08-26T02:12:18.529Z,18.90
2022-08-26T02:17:25.639Z,18.90
2022-08-26T02:22:30.622Z,19.10
2022-08-26T02:27:36.059Z,19.10
2022-08-26T02:32:40.247Z,18.90
2022-08-26T02:37:44.467Z,18.90
2022-08-26T02:42:48.938Z,18.80
2022-08-26T02:47:52.560Z,18.80
2022-08-26T02:52:56.616Z,18.80
2022-08-26T02:58:01.529Z,18.70
2022-08-26T03:03:06.438Z,18.60
2022-08-26T03:08:11.786Z,18.60
2022-08-26T03:13:16.030Z,18.50
2022-08-26T03:18:19.026Z,18.50
2022-08-26T03:23:24.082Z,18.40
2022-08-26T03:28:28.633Z,18.40
2022-08-26T03:33:31.756Z,18.30
2022-08-26T03:38:35.016Z,18.30
2022-08-26T03:43:39.680Z,18.30
2022-08-26T03:48:43.947Z,18.30
2022-08-26T03:53:48.331Z,18.30
2022-08-26T03:58:53.143Z,18.30
2022-08-26T04:04:00.190Z,18.30
2022-08-26T04:09:06.628Z,18.30
2022-08-26T04:14:14.348Z,18.30
2022-08-26T04:19:22.641Z,18.30
2022-08-26T04:24:27.962Z,18.30
2022-08-26T04:29:32.638Z,18.40
2022-08-26T04:34:36.103Z,18.50
2022-08-26T04:39:39.270Z,18.70
2022-08-26T04:44:43.809Z,18.70
2022-08-26T04:49:46.961Z,18.90
2022-08-26T04:54:50.246Z,19.10
2022-08-26T04:59:54.587Z,19.30
2022-08-26T05:04:58.405Z,19.50
2022-08-26T05:10:03.356Z,19.60
2022-08-26T05:15:10.296Z,19.80
2022-08-26T05:20:13.379Z,19.90
2022-08-26T05:25:17.408Z,20.10
2022-08-26T05:30:21.823Z,20.30
2022-08-26T05:35:29.090Z,20.80
2022-08-26T05:40:36.207Z,21.40
2022-08-26T05:45:46.173Z,21.80
2022-08-26T05:50:51.526Z,21.80
2022-08-26T05:55:55.164Z,21.80
2022-08-26T06:01:04.249Z,21.80
2022-08-26T06:06:09.558Z,22.50
2022-08-26T06:11:18.293Z,23.90
2022-08-26T06:16:24.580Z,25.60
2022-08-26T06:21:30.107Z,26.80
2022-08-26T06:26:34.508Z,27.80
2022-08-26T06:31:41.028Z,28.40
2022-08-26T06:36:45.055Z,29.40
2022-08-26T06:41:49.336Z,28.80
2022-08-26T06:46:54.892Z,29.40
2022-08-26T06:51:59.015Z,29.50
2022-08-26T06:57:02.264Z,29.90
2022-08-26T07:02:07.281Z,29.70
2022-08-26T07:07:14.261Z,29.90
2022-08-26T07:12:17.669Z,30.50
2022-08-26T07:17:24.961Z,30.70
2022-08-26T07:22:28.212Z,31.10
2022-08-26T07:27:31.814Z,31.60
2022-08-26T07:32:37.544Z,31.30
2022-08-26T07:37:40.674Z,31.70
2022-08-26T07:42:44.597Z,31.90
2022-08-26T07:47:49.004Z,32.50
2022-08-26T07:52:51.985Z,31.90
2022-08-26T07:57:56.312Z,32.40
2022-08-26T08:03:00.872Z,32.60
2022-08-26T08:08:26.929Z,32.70
2022-08-26T08:13:29.708Z,33.20
2022-08-26T08:18:34.174Z,34.00
2022-08-26T08:23:37.903Z,34.20
2022-08-26T08:28:42.124Z,34.50
2022-08-26T08:33:46.912Z,33.90
2022-08-26T08:38:50.158Z,34.30
2022-08-26T08:43:53.481Z,34.90
2022-08-26T08:48:59.864Z,34.30
2022-08-26T08:54:04.427Z,34.50
2022-08-26T08:59:14.763Z,34.90
2022-08-26T09:04:46.220Z,34.70
2022-08-26T09:09:53.019Z,34.90
2022-08-26T09:15:02.394Z,35.80
2022-08-26T09:20:17.061Z,35.30
2022-08-26T09:25:20.181Z,35.70
2022-08-26T09:30:26.421Z,35.30
2022-08-26T09:35:33.422Z,33.30
2022-08-26T09:40:36.831Z,31.60
2022-08-26T09:45:49.355Z,31.20
2022-08-26T09:50:59.020Z,32.40
2022-08-26T09:56:16.328Z,33.60
2022-08-26T10:01:30.071Z,33.90
2022-08-26T10:06:38.466Z,32.70
2022-08-26T10:11:47.636Z,30.90
2022-08-26T10:16:56.448Z,30.90
2022-08-26T10:22:06.062Z,30.60
2022-08-26T10:27:19.609Z,30.60
2022-08-26T10:32:27.910Z,30.40
2022-08-26T10:37:37.464Z,30.60
2022-08-26T10:42:46.256Z,31.40
2022-08-26T10:47:54.701Z,32.50
2022-08-26T10:53:04.115Z,33.50
2022-08-26T10:58:26.490Z,33.50
2022-08-26T11:03:36.714Z,31.50
2022-08-26T11:08:47.638Z,30.60
2022-08-26T11:14:02.407Z,30.10
2022-08-26T11:19:06.472Z,30.30
2022-08-26T11:24:46.617Z,30.50
2022-08-26T11:29:59.169Z,30.40
2022-08-26T11:35:05.212Z,28.10
2022-08-26T11:40:13.449Z,27.70
2022-08-26T11:45:19.468Z,27.90
2022-08-26T11:50:26.279Z,27.10
2022-08-26T11:55:31.765Z,25.90
2022-08-26T12:00:48.403Z,25.60
2022-08-26T12:05:53.151Z,25.30
2022-08-26T12:11:09.115Z,24.70
2022-08-26T12:16:12.829Z,24.20
2022-08-26T12:21:22.710Z,24.10
2022-08-26T12:26:31.114Z,23.80
2022-08-26T12:31:37.226Z,23.40
2022-08-26T12:36:48.725Z,23.00
2022-08-26T12:41:55.417Z,22.50
2022-08-26T12:47:03.019Z,22.10
2022-08-26T12:52:07.614Z,21.60
2022-08-26T12:57:13.234Z,21.60
2022-08-26T13:02:35.383Z,22.20
2022-08-26T13:07:38.575Z,22.10
2022-08-26T13:12:42.990Z,22.10
2022-08-26T13:17:46.029Z,22.20
2022-08-26T13:22:51.949Z,22.10
2022-08-26T13:28:03.623Z,22.10
2022-08-26T13:33:08.241Z,22.00
2022-08-26T13:38:22.318Z,21.80
2022-08-26T13:43:37.612Z,21.70
2022-08-26T13:48:41.140Z,21.50
2022-08-26T13:53:48.270Z,21.50
2022-08-26T13:58:52.725Z,21.30
2022-08-26T14:03:56.186Z,21.40
2022-08-26T14:09:00.328Z,21.40
2022-08-26T14:14:04.799Z,21.40
2022-08-26T14:19:09.388Z,21.40
2022-08-26T14:24:12.535Z,21.30
2022-08-26T14:29:17.126Z,21.30
2022-08-26T14:34:20.413Z,21.30
2022-08-26T14:39:23.796Z,21.20
2022-08-26T14:44:31.832Z,21.10
2022-08-26T14:49:35.380Z,20.80
2022-08-26T14:54:38.458Z,20.70
2022-08-26T14:59:45.523Z,20.80
2022-08-26T15:04:53.290Z,20.70
2022-08-26T15:09:56.352Z,20.60
2022-08-26T15:15:00.835Z,20.70
2022-08-26T15:20:06.167Z,20.50
2022-08-26T15:25:10.536Z,20.30
2022-08-26T15:30:16.582Z,20.30
2022-08-26T15:35:19.780Z,20.20
2022-08-26T15:40:22.934Z,20.20
2022-08-26T15:45:27.659Z,20.20
2022-08-26T15:50:30.858Z,20.10
2022-08-26T15:55:33.972Z,20.20
2022-08-26T16:00:39.439Z,20.20
2022-08-26T16:05:46.540Z,19.90
2022-08-26T16:10:51.317Z,19.70
2022-08-26T16:15:55.837Z,19.70
2022-08-26T16:21:13.742Z,19.70
2022-08-26T16:26:19.941Z,19.80
2022-08-26T16:31:24.584Z,19.70
2022-08-26T16:36:28.037Z,19.70
2022-08-26T16:41:31.755Z,19.80
2022-08-26T16:46:36.305Z,19.90
2022-08-26T16:51:39.472Z,20.00
2022-08-26T16:56:42.613Z,20.10
2022-08-26T17:01:47.125Z,19.90
2022-08-26T17:06:50.286Z,19.90
2022-08-26T17:11:54.352Z,19.90
2022-08-26T17:16:59.301Z,19.90
2022-08-26T17:22:02.495Z,19.90
2022-08-26T17:27:10.391Z,20.10
2022-08-26T17:32:14.865Z,20.00
2022-08-26T17:37:18.201Z,20.00
2022-08-26T17:42:21.407Z,20.00
2022-08-26T17:47:36.248Z,19.90
2022-08-26T17:52:40.657Z,19.80
2022-08-26T17:57:44.358Z,19.80
2022-08-26T18:02:58.252Z,19.80
2022-08-26T18:08:01.419Z,19.80
2022-08-26T18:13:04.724Z,19.70
2022-08-26T18:18:09.504Z,19.70
2022-08-26T18:23:12.971Z,19.80
2022-08-26T18:28:16.032Z,19.80
2022-08-26T18:33:22.185Z,19.80
2022-08-26T18:38:25.283Z,19.60
2022-08-26T18:43:31.452Z,19.70
2022-08-26T18:48:36.984Z,19.60
2022-08-26T18:53:41.943Z,19.50
2022-08-26T18:58:45.171Z,19.50
2022-08-26T19:03:50.181Z,19.50
2022-08-26T19:08:53.732Z,19.50
2022-08-26T19:13:57.036Z,19.40
2022-08-26T19:19:01.988Z,19.30
2022-08-26T19:24:09.361Z,19.30
2022-08-26T19:29:13.782Z,19.40
2022-08-26T19:34:20.918Z,19.50
2022-08-26T19:39:25.280Z,19.50
2022-08-26T19:44:47.047Z,19.50
2022-08-26T19:49:54.296Z,19.60
2022-08-26T19:54:57.441Z,19.60
2022-08-26T20:00:01.079Z,19.70
2022-08-26T20:05:08.675Z,19.70
2022-08-26T20:10:13.431Z,19.60
2022-08-26T20:15:16.882Z,19.60
2022-08-26T20:20:40.263Z,19.60
2022-08-26T20:25:43.299Z,19.50
2022-08-26T20:30:46.532Z,19.60
2022-08-26T20:35:51.335Z,19.70
2022-08-26T20:40:54.402Z,19.50
2022-08-26T20:45:59.796Z,19.50
2022-08-26T20:51:05.605Z,19.50
2022-08-26T20:56:09.393Z,19.50
2022-08-26T21:01:19.553Z,19.50
2022-08-26T21:06:24.759Z,19.40
2022-08-26T21:11:27.782Z,19.40
2022-08-26T21:16:30.989Z,19.50
2022-08-26T21:21:35.623Z,19.40
2022-08-26T21:26:39.230Z,19.30
2022-08-26T21:31:46.421Z,19.30
2022-08-26T21:36:51.344Z,19.40
2022-08-26T21:41:54.512Z,19.50
2022-08-26T21:46:57.639Z,19.50
2022-08-26T21:52:04.565Z,19.40
2022-08-26T21:57:07.785Z,19.40
2022-08-26T22:02:10.946Z,19.40
2022-08-26T22:07:17.060Z,19.30
2022-08-26T22:12:20.206Z,19.30
2022-08-26T22:17:23.286Z,19.30
2022-08-26T22:22:28.599Z,19.30
2022-08-26T22:27:31.105Z,19.20
2022-08-26T22:32:34.546Z,19.20
2022-08-26T22:37:39.378Z,19.20
2022-08-26T22:42:42.500Z,19.10
2022-08-26T22:47:59.471Z,19.20
2022-08-26T22:53:04.394Z,19.20
2022-08-26T22:58:07.962Z,19.20
2022-08-26T23:03:11.593Z,19.10
2022-08-26T23:08:16.789Z,19.30
2022-08-26T23:13:20.562Z,19.20
2022-08-26T23:18:23.637Z,19.20
2022-08-26T23:23:28.470Z,19.10
2022-08-26T23:28:31.910Z,19.10
2022-08-26T23:33:53.814Z,19.10
2022-08-26T23:38:58.245Z,19.10
2022-08-26T23:44:03.690Z,19.00
2022-08-26T23:49:07.050Z,19.00
2022-08-26T23:54:11.981Z,19.10
2022-08-26T23:59:15.609Z,19.30
